createdAt,value
2018-12-09T00:00:33.100Z,0
2018-12-09T00:01:34.068Z,0
2018-12-09T00:02:34.758Z,0
2018-12-09T00:03:34.895Z,0
2018-12-09T00:04:35.954Z,0
2018-12-09T00:05:37.321Z,0
2018-12-09T00:06:36.734Z,0
2018-12-09T00:07:37.914Z,0
2018-12-09T00:08:38.325Z,0
2018-12-09T00:09:39.576Z,0
2018-12-09T00:10:39.711Z,0
2018-12-09T00:11:40.119Z,0
2018-12-09T00:12:41.527Z,0
2018-12-09T00:13:41.939Z,0
2018-12-09T00:14:42.625Z,0
2018-12-09T00:15:42.758Z,0
2018-12-09T00:16:44.513Z,0
2018-12-09T00:17:45.617Z,0
2018-12-09T00:18:46.305Z,0
2018-12-09T00:19:46.552Z,0
2018-12-09T00:20:47.243Z,0
2018-12-09T00:21:48.210Z,0
2018-12-09T00:22:49.293Z,0
2018-12-09T00:23:49.979Z,0
2018-12-09T00:24:50.114Z,0
2018-12-09T00:25:51.524Z,0
2018-12-09T00:26:52.769Z,0
2018-12-09T00:27:52.607Z,0
2018-12-09T00:28:53.297Z,0
2018-12-09T00:29:54.262Z,0
2018-12-09T00:30:54.767Z,0
2018-12-09T00:31:54.906Z,0
2018-12-09T00:32:56.600Z,0
2018-12-09T00:33:57.574Z,0
2018-12-09T00:34:57.986Z,0
2018-12-09T00:35:58.397Z,0
2018-12-09T00:36:59.080Z,0
2018-12-09T00:37:59.781Z,0
2018-12-09T00:39:00.192Z,0
2018-12-09T00:40:01.268Z,0
2018-12-09T00:41:01.233Z,0
2018-12-09T00:42:02.022Z,0
2018-12-09T00:43:02.985Z,0
2018-12-09T00:44:04.508Z,0
2018-12-09T00:45:04.313Z,0
2018-12-09T00:46:04.725Z,0
2018-12-09T00:47:05.137Z,0
2018-12-09T00:48:05.682Z,0
2018-12-09T00:49:07.183Z,0
2018-12-09T00:50:07.312Z,0
2018-12-09T00:51:09.086Z,0
2018-12-09T00:52:10.051Z,0
2018-12-09T00:53:09.741Z,0
2018-12-09T00:54:09.872Z,0
2018-12-09T00:55:11.289Z,0
2018-12-09T00:56:12.260Z,0
2018-12-09T00:57:13.133Z,0
2018-12-09T00:58:12.958Z,0
2018-12-09T00:59:13.369Z,0
2018-12-09T01:00:13.588Z,0
2018-12-09T01:01:14.723Z,0
2018-12-09T01:02:16.135Z,0
2018-12-09T01:03:16.546Z,0
2018-12-09T01:04:17.679Z,0
2018-12-09T01:05:19.087Z,0
2018-12-09T01:06:20.779Z,0
2018-12-09T01:07:21.464Z,0
2018-12-09T01:08:22.018Z,0
2018-12-09T01:09:23.204Z,0
2018-12-09T01:10:23.335Z,0
2018-12-09T01:11:24.744Z,0
2018-12-09T01:12:24.881Z,0
2018-12-09T01:13:25.844Z,0
2018-12-09T01:14:25.980Z,0
2018-12-09T01:15:26.941Z,0
2018-12-09T01:16:27.071Z,0
2018-12-09T01:17:27.758Z,0
2018-12-09T01:18:28.113Z,0
2018-12-09T01:19:28.248Z,0
2018-12-09T01:20:29.969Z,0
2018-12-09T01:21:30.931Z,0
2018-12-09T01:22:31.120Z,0
2018-12-09T01:23:31.803Z,0
2018-12-09T01:24:32.789Z,0
2018-12-09T01:25:33.210Z,0
2018-12-09T01:26:33.633Z,0
2018-12-09T01:27:34.341Z,0
2018-12-09T01:28:35.466Z,0
2018-12-09T01:29:36.811Z,0
2018-12-09T01:30:36.518Z,0
2018-12-09T01:31:37.807Z,0
2018-12-09T01:32:37.980Z,0
2018-12-09T01:33:39.392Z,0
2018-12-09T01:34:40.537Z,0
2018-12-09T01:35:41.241Z,0
2018-12-09T01:36:41.380Z,0
2018-12-09T01:37:42.799Z,0
2018-12-09T01:38:43.638Z,0
2018-12-09T01:39:44.068Z,0
2018-12-09T01:40:45.965Z,0
2018-12-09T01:41:45.110Z,0
2018-12-09T01:42:46.254Z,0
2018-12-09T01:43:47.950Z,0
2018-12-09T01:44:48.707Z,0
2018-12-09T01:45:49.142Z,0
2018-12-09T01:46:49.848Z,0
2018-12-09T01:47:50.308Z,0
2018-12-09T01:48:51.156Z,0
2018-12-09T01:49:53.142Z,0
2018-12-09T01:50:53.654Z,0
2018-12-09T01:51:54.441Z,0
2018-12-09T01:52:55.147Z,0
2018-12-09T01:53:55.965Z,0
2018-12-09T01:54:57.386Z,0
2018-12-09T01:55:57.801Z,0
2018-12-09T01:56:58.217Z,0
2018-12-09T01:57:59.283Z,0
2018-12-09T01:58:59.077Z,0
2018-12-09T02:00:00.501Z,0
2018-12-09T02:01:01.208Z,0
2018-12-09T02:02:01.349Z,0
2018-12-09T02:03:01.871Z,0
2018-12-09T02:04:03.532Z,0
2018-12-09T02:05:02.592Z,0
2018-12-09T02:06:03.281Z,0
2018-12-09T02:07:03.705Z,0
2018-12-09T02:08:04.497Z,0
2018-12-09T02:09:04.928Z,0
2018-12-09T02:10:05.940Z,0
2018-12-09T02:11:07.209Z,0
2018-12-09T02:12:07.943Z,0
2018-12-09T02:13:08.916Z,0
2018-12-09T02:14:09.695Z,0
2018-12-09T02:15:11.431Z,0
2018-12-09T02:16:10.552Z,0
2018-12-09T02:17:10.970Z,0
2018-12-09T02:18:11.762Z,0
2018-12-09T02:19:12.707Z,0
2018-12-09T02:20:12.851Z,0
2018-12-09T02:21:14.099Z,0
2018-12-09T02:22:14.804Z,0
2018-12-09T02:23:15.320Z,0
2018-12-09T02:24:15.833Z,0
2018-12-09T02:25:16.200Z,0
2018-12-09T02:26:17.214Z,0
2018-12-09T02:27:17.445Z,0
2018-12-09T02:28:18.138Z,0
2018-12-09T02:29:18.705Z,0
2018-12-09T02:30:21.522Z,0
2018-12-09T02:31:21.342Z,0
2018-12-09T02:32:21.855Z,0
2018-12-09T02:33:22.969Z,0
2018-12-09T02:34:24.221Z,0
2018-12-09T02:35:23.980Z,0
2018-12-09T02:36:25.841Z,0
2018-12-09T02:37:28.372Z,0
2018-12-09T02:38:27.245Z,0
2018-12-09T02:39:29.765Z,0
2018-12-09T02:40:29.459Z,0
2018-12-09T02:41:30.185Z,0
2018-12-09T02:42:31.765Z,0
2018-12-09T02:43:32.735Z,0
2018-12-09T02:44:33.173Z,0
2018-12-09T02:45:35.148Z,0
2018-12-09T02:46:35.863Z,0
2018-12-09T02:47:36.313Z,0
2018-12-09T02:48:38.735Z,0
2018-12-09T02:49:38.160Z,0
2018-12-09T02:50:39.148Z,0
2018-12-09T02:51:38.578Z,0
2018-12-09T02:52:40.128Z,0
2018-12-09T02:53:40.558Z,0
2018-12-09T02:54:41.814Z,0
2018-12-09T02:55:42.078Z,0
2018-12-09T02:56:43.471Z,0
2018-12-09T02:57:43.890Z,0
2018-12-09T02:58:44.591Z,0
2018-12-09T02:59:47.200Z,0
2018-12-09T03:00:47.537Z,0
2018-12-09T03:01:47.799Z,0
2018-12-09T03:02:48.767Z,0
2018-12-09T03:03:49.459Z,0
2018-12-09T03:04:49.880Z,0
2018-12-09T03:05:50.867Z,0
2018-12-09T03:06:52.135Z,0
2018-12-09T03:07:52.674Z,0
2018-12-09T03:08:52.090Z,0
2018-12-09T03:09:53.522Z,0
2018-12-09T03:10:55.703Z,0
2018-12-09T03:11:55.419Z,0
2018-12-09T03:12:56.400Z,0
2018-12-09T03:13:56.819Z,0
2018-12-09T03:14:57.006Z,0
2018-12-09T03:15:57.983Z,0
2018-12-09T03:16:58.135Z,0
2018-12-09T03:18:00.118Z,0
2018-12-09T03:18:59.541Z,0
2018-12-09T03:20:00.691Z,0
2018-12-09T03:21:01.402Z,0
2018-12-09T03:22:04.673Z,0
2018-12-09T03:23:04.226Z,0
2018-12-09T03:24:03.929Z,0
2018-12-09T03:25:05.065Z,0
2018-12-09T03:26:06.041Z,0
2018-12-09T03:27:06.764Z,0
2018-12-09T03:28:07.764Z,0
2018-12-09T03:29:08.619Z,0
2018-12-09T03:30:21.806Z,0
2018-12-09T03:31:22.450Z,0
2018-12-09T03:32:23.624Z,0
2018-12-09T03:33:23.663Z,0
2018-12-09T03:34:25.408Z,0
2018-12-09T03:35:27.576Z,0
2018-12-09T03:36:27.150Z,0
2018-12-09T03:37:27.704Z,0
2018-12-09T03:38:27.677Z,0
2018-12-09T03:39:28.095Z,0
2018-12-09T03:40:29.355Z,0
2018-12-09T03:41:29.742Z,0
2018-12-09T03:42:30.992Z,0
2018-12-09T03:43:32.087Z,0
2018-12-09T03:44:32.360Z,0
2018-12-09T03:45:33.027Z,0
2018-12-09T03:46:33.000Z,0
2018-12-09T03:47:33.235Z,0
2018-12-09T03:48:33.673Z,0
2018-12-09T03:49:34.465Z,0
2018-12-09T03:50:35.720Z,0
2018-12-09T03:51:36.461Z,0
2018-12-09T03:52:37.003Z,0
2018-12-09T03:53:37.728Z,0
2018-12-09T03:54:37.744Z,0
2018-12-09T03:55:38.465Z,0
2018-12-09T03:56:41.213Z,0
2018-12-09T03:57:39.085Z,0
2018-12-09T03:58:42.112Z,0
2018-12-09T03:59:42.406Z,0
2018-12-09T04:00:43.418Z,0
2018-12-09T04:01:43.873Z,0
2018-12-09T04:02:44.305Z,0
2018-12-09T04:03:45.108Z,0
2018-12-09T04:04:45.826Z,0
2018-12-09T04:05:46.828Z,0
2018-12-09T04:06:48.379Z,0
2018-12-09T04:07:47.836Z,0
2018-12-09T04:08:49.549Z,0
2018-12-09T04:09:50.823Z,0
2018-12-09T04:10:51.239Z,0
2018-12-09T04:11:52.652Z,0
2018-12-09T04:12:53.912Z,0
2018-12-09T04:13:53.616Z,0
2018-12-09T04:14:55.150Z,0
2018-12-09T04:15:56.130Z,0
2018-12-09T04:16:56.838Z,0
2018-12-09T04:17:58.664Z,0
2018-12-09T04:18:58.382Z,0
2018-12-09T04:19:59.094Z,0
2018-12-09T04:21:00.071Z,0
2018-12-09T04:22:00.644Z,0
2018-12-09T04:23:02.483Z,0
2018-12-09T04:24:02.812Z,0
2018-12-09T04:25:03.797Z,0
2018-12-09T04:26:04.525Z,0
2018-12-09T04:27:05.521Z,0
2018-12-09T04:28:06.503Z,0
2018-12-09T04:29:08.941Z,0
2018-12-09T04:30:07.807Z,0
2018-12-09T04:31:08.239Z,0
2018-12-09T04:32:08.804Z,0
2018-12-09T04:33:09.836Z,0
2018-12-09T04:34:10.848Z,0
2018-12-09T04:35:11.304Z,0
2018-12-09T04:36:12.001Z,0
2018-12-09T04:37:12.424Z,0
2018-12-09T04:38:13.166Z,0
2018-12-09T04:39:14.609Z,0
2018-12-09T04:40:16.879Z,0
2018-12-09T04:41:16.392Z,0
2018-12-09T04:42:17.017Z,0
2018-12-09T04:43:17.774Z,0
2018-12-09T04:44:18.464Z,0
2018-12-09T04:45:19.898Z,0
2018-12-09T04:46:20.589Z,0
2018-12-09T04:47:21.104Z,0
2018-12-09T04:48:21.287Z,0
2018-12-09T04:49:22.293Z,0
2018-12-09T04:50:24.302Z,0
2018-12-09T04:51:24.295Z,0
2018-12-09T04:52:24.880Z,0
2018-12-09T04:53:25.582Z,0
2018-12-09T04:54:26.884Z,0
2018-12-09T04:55:26.329Z,0
2018-12-09T04:56:27.584Z,0
2018-12-09T04:57:28.015Z,0
2018-12-09T04:58:29.004Z,0
2018-12-09T04:59:29.438Z,0
2018-12-09T05:00:30.135Z,0
2018-12-09T05:01:33.635Z,0
2018-12-09T05:02:32.744Z,0
2018-12-09T05:03:33.157Z,0
2018-12-09T05:04:34.585Z,0
2018-12-09T05:05:35.300Z,0
2018-12-09T05:06:36.270Z,0
2018-12-09T05:07:36.407Z,0
2018-12-09T05:08:38.174Z,0
2018-12-09T05:09:38.873Z,0
2018-12-09T05:10:40.126Z,0
2018-12-09T05:11:39.991Z,0
2018-12-09T05:12:42.079Z,0
2018-12-09T05:13:41.916Z,0
2018-12-09T05:14:41.346Z,0
2018-12-09T05:15:43.325Z,0
2018-12-09T05:16:43.870Z,0
2018-12-09T05:17:44.295Z,0
2018-12-09T05:18:44.713Z,0
2018-12-09T05:19:46.217Z,0
2018-12-09T05:20:47.209Z,0
2018-12-09T05:21:47.904Z,0
2018-12-09T05:22:50.378Z,0
2018-12-09T05:23:49.524Z,0
2018-12-09T05:24:51.227Z,0
2018-12-09T05:25:51.648Z,0
2018-12-09T05:26:51.788Z,0
2018-12-09T05:27:53.759Z,0
2018-12-09T05:28:54.446Z,0
2018-12-09T05:29:54.858Z,0
2018-12-09T05:30:55.550Z,0
2018-12-09T05:31:55.684Z,0
2018-12-09T05:32:56.931Z,0
2018-12-09T05:33:59.481Z,0
2018-12-09T05:34:58.605Z,0
2018-12-09T05:36:00.778Z,0
2018-12-09T05:37:00.746Z,0
2018-12-09T05:38:01.791Z,0
2018-12-09T05:39:02.490Z,0
2018-12-09T05:40:03.538Z,0
2018-12-09T05:41:03.963Z,0
2018-12-09T05:42:05.369Z,0
2018-12-09T05:43:05.950Z,0
2018-12-09T05:44:08.207Z,0
2018-12-09T05:45:07.913Z,0
2018-12-09T05:46:10.084Z,0
2018-12-09T05:47:09.777Z,0
2018-12-09T05:48:10.189Z,0
2018-12-09T05:49:10.447Z,0
2018-12-09T05:50:10.857Z,0
2018-12-09T05:51:12.297Z,0
2018-12-09T05:52:12.441Z,0
2018-12-09T05:53:13.843Z,0
2018-12-09T05:54:14.717Z,0
2018-12-09T05:55:16.286Z,0
2018-12-09T05:56:16.104Z,0
2018-12-09T05:57:17.525Z,0
2018-12-09T05:58:17.675Z,0
2018-12-09T05:59:18.653Z,0
2018-12-09T06:00:18.803Z,0
2018-12-09T06:01:19.779Z,0
2018-12-09T06:02:20.194Z,0
2018-12-09T06:03:20.869Z,0
2018-12-09T06:04:22.014Z,0
2018-12-09T06:05:25.943Z,0
2018-12-09T06:06:24.078Z,0
2018-12-09T06:07:25.512Z,0
2018-12-09T06:08:26.769Z,0
2018-12-09T06:09:27.768Z,0
2018-12-09T06:10:28.527Z,0
2018-12-09T06:11:28.664Z,0
2018-12-09T06:12:29.805Z,0
2018-12-09T06:13:30.938Z,0
2018-12-09T06:14:31.646Z,0
2018-12-09T06:15:32.609Z,0
2018-12-09T06:16:33.570Z,0
2018-12-09T06:17:33.578Z,0
2018-12-09T06:18:35.280Z,0
2018-12-09T06:19:35.973Z,0
2018-12-09T06:20:36.112Z,0
2018-12-09T06:21:36.802Z,0
2018-12-09T06:22:37.786Z,0
2018-12-09T06:23:38.323Z,0
2018-12-09T06:24:39.735Z,0
2018-12-09T06:25:40.533Z,0
2018-12-09T06:26:42.690Z,0
2018-12-09T06:27:40.964Z,0
2018-12-09T06:28:42.103Z,0
2018-12-09T06:29:43.254Z,0
2018-12-09T06:30:44.670Z,0
2018-12-09T06:31:45.083Z,0
2018-12-09T06:32:45.780Z,0
2018-12-09T06:33:46.059Z,0
2018-12-09T06:34:47.044Z,0
2018-12-09T06:35:47.457Z,0
2018-12-09T06:36:50.166Z,0
2018-12-09T06:37:51.680Z,0
2018-12-09T06:38:51.561Z,0
2018-12-09T06:39:52.270Z,0
2018-12-09T06:40:52.965Z,0
2018-12-09T06:41:53.377Z,0
2018-12-09T06:42:54.067Z,0
2018-12-09T06:43:54.948Z,0
2018-12-09T06:44:55.359Z,0
2018-12-09T06:45:56.611Z,0
2018-12-09T06:46:57.312Z,0
2018-12-09T06:47:59.965Z,0
2018-12-09T06:48:58.362Z,0
2018-12-09T06:49:59.497Z,0
2018-12-09T06:51:00.634Z,0
2018-12-09T06:52:01.336Z,0
2018-12-09T06:53:01.839Z,0
2018-12-09T06:54:03.130Z,0
2018-12-09T06:55:03.877Z,0
2018-12-09T06:56:04.292Z,0
2018-12-09T06:57:05.009Z,0
2018-12-09T06:58:06.937Z,0
2018-12-09T06:59:05.913Z,0
2018-12-09T07:00:06.064Z,0
2018-12-09T07:01:07.757Z,0
2018-12-09T07:02:07.987Z,0
2018-12-09T07:03:08.980Z,0
2018-12-09T07:04:10.098Z,0
2018-12-09T07:05:10.568Z,0
2018-12-09T07:06:11.265Z,0
2018-12-09T07:07:12.500Z,0
2018-12-09T07:08:13.829Z,5.63
2018-12-09T07:09:14.205Z,5.63
2018-12-09T07:10:14.620Z,5.63
2018-12-09T07:11:15.318Z,5.63
2018-12-09T07:12:15.769Z,5.63
2018-12-09T07:13:16.464Z,0
2018-12-09T07:14:16.990Z,0
2018-12-09T07:15:17.699Z,0
2018-12-09T07:16:18.222Z,0
2018-12-09T07:17:19.830Z,0
2018-12-09T07:18:21.351Z,0
2018-12-09T07:19:21.109Z,0
2018-12-09T07:20:21.866Z,0
2018-12-09T07:21:22.113Z,0
2018-12-09T07:22:22.533Z,5.63
2018-12-09T07:23:23.283Z,5.63
2018-12-09T07:24:23.575Z,5.63
2018-12-09T07:25:24.827Z,5.63
2018-12-09T07:26:25.515Z,5.63
2018-12-09T07:27:25.941Z,5.63
2018-12-09T07:28:28.449Z,5.63
2018-12-09T07:29:28.561Z,11.25
2018-12-09T07:30:27.973Z,11.25
2018-12-09T07:31:28.672Z,11.25
2018-12-09T07:32:29.093Z,11.25
2018-12-09T07:33:29.230Z,11.25
2018-12-09T07:34:30.924Z,11.25
2018-12-09T07:35:31.628Z,16.88
2018-12-09T07:36:32.345Z,16.88
2018-12-09T07:37:32.974Z,22.5
2018-12-09T07:38:33.550Z,22.5
2018-12-09T07:39:34.685Z,22.5
2018-12-09T07:40:35.108Z,22.5
2018-12-09T07:41:36.086Z,22.5
2018-12-09T07:42:37.656Z,22.5
2018-12-09T07:43:38.475Z,16.88
2018-12-09T07:44:39.317Z,16.88
2018-12-09T07:45:40.387Z,22.5
2018-12-09T07:46:40.813Z,16.88
2018-12-09T07:47:42.070Z,16.88
2018-12-09T07:48:44.563Z,16.88
2018-12-09T07:49:43.470Z,16.88
2018-12-09T07:50:43.996Z,16.88
2018-12-09T07:51:44.412Z,22.5
2018-12-09T07:52:47.045Z,22.5
2018-12-09T07:53:45.460Z,22.5
2018-12-09T07:54:45.848Z,22.5
2018-12-09T07:55:46.538Z,16.88
2018-12-09T07:56:47.294Z,11.25
2018-12-09T07:57:47.430Z,11.25
2018-12-09T07:58:48.564Z,11.25
2018-12-09T07:59:49.809Z,5.63
2018-12-09T08:00:49.942Z,5.63
2018-12-09T08:01:51.075Z,5.63
2018-12-09T08:02:52.487Z,5.63
2018-12-09T08:03:53.900Z,5.63
2018-12-09T08:04:54.448Z,5.63
2018-12-09T08:05:55.416Z,5.63
2018-12-09T08:06:56.414Z,5.63
2018-12-09T08:07:57.109Z,11.25
2018-12-09T08:08:59.016Z,11.25
2018-12-09T08:09:59.982Z,11.25
2018-12-09T08:11:00.398Z,11.25
2018-12-09T08:12:02.363Z,11.25
2018-12-09T08:13:02.607Z,16.88
2018-12-09T08:14:03.299Z,16.88
2018-12-09T08:15:04.404Z,22.5
2018-12-09T08:16:04.822Z,22.5
2018-12-09T08:17:06.512Z,28.13
2018-12-09T08:18:06.648Z,22.5
2018-12-09T08:19:07.786Z,22.5
2018-12-09T08:20:08.912Z,16.88
2018-12-09T08:21:12.037Z,16.88
2018-12-09T08:22:12.733Z,16.88
2018-12-09T08:23:13.145Z,16.88
2018-12-09T08:24:13.281Z,16.88
2018-12-09T08:25:14.561Z,16.88
2018-12-09T08:26:16.092Z,16.88
2018-12-09T08:27:16.061Z,22.5
2018-12-09T08:28:16.476Z,28.13
2018-12-09T08:29:17.228Z,33.75
2018-12-09T08:30:18.203Z,39.38
2018-12-09T08:31:18.720Z,33.75
2018-12-09T08:32:18.857Z,28.13
2018-12-09T08:33:19.544Z,28.13
2018-12-09T08:34:19.682Z,28.13
2018-12-09T08:35:20.780Z,28.13
2018-12-09T08:36:21.192Z,28.13
2018-12-09T08:37:21.613Z,28.13
2018-12-09T08:38:22.028Z,22.5
2018-12-09T08:39:23.005Z,22.5
2018-12-09T08:40:23.699Z,28.13
2018-12-09T08:41:24.949Z,33.75
2018-12-09T08:42:25.361Z,33.75
2018-12-09T08:43:26.338Z,33.75
2018-12-09T08:44:27.027Z,33.75
2018-12-09T08:45:27.412Z,33.75
2018-12-09T08:46:28.153Z,28.13
2018-12-09T08:47:29.398Z,28.13
2018-12-09T08:48:29.531Z,22.5
2018-12-09T08:49:30.670Z,22.5
2018-12-09T08:50:31.636Z,22.5
2018-12-09T08:51:31.772Z,16.88
2018-12-09T08:52:32.739Z,16.88
2018-12-09T08:53:33.708Z,11.25
2018-12-09T08:54:34.521Z,5.63
2018-12-09T08:55:40.399Z,11.25
2018-12-09T08:56:39.952Z,11.25
2018-12-09T08:57:38.368Z,11.25
2018-12-09T08:58:39.063Z,11.25
2018-12-09T08:59:39.535Z,11.25
2018-12-09T09:00:39.960Z,11.25
2018-12-09T09:01:41.373Z,11.25
2018-12-09T09:02:42.062Z,11.25
2018-12-09T09:03:42.198Z,11.25
2018-12-09T09:04:43.171Z,11.25
2018-12-09T09:05:43.997Z,5.63
2018-12-09T09:06:45.403Z,5.63
2018-12-09T09:07:46.652Z,5.63
2018-12-09T09:08:46.622Z,11.25
2018-12-09T09:09:46.765Z,16.88
2018-12-09T09:10:48.003Z,16.88
2018-12-09T09:11:48.699Z,16.88
2018-12-09T09:12:49.108Z,16.88
2018-12-09T09:13:49.899Z,22.5
2018-12-09T09:14:50.329Z,16.88
2018-12-09T09:15:51.274Z,16.88
2018-12-09T09:16:51.408Z,33.75
2018-12-09T09:17:52.544Z,56.25
2018-12-09T09:18:54.236Z,56.25
2018-12-09T09:19:54.647Z,45
2018-12-09T09:20:55.341Z,33.75
2018-12-09T09:21:55.490Z,22.5
2018-12-09T09:22:55.904Z,16.88
2018-12-09T09:23:57.110Z,11.25
2018-12-09T09:25:01.817Z,11.25
2018-12-09T09:26:00.073Z,11.25
2018-12-09T09:27:00.485Z,11.25
2018-12-09T09:28:02.486Z,11.25
2018-12-09T09:29:03.463Z,11.25
2018-12-09T09:30:04.710Z,16.88
2018-12-09T09:31:05.122Z,28.13
2018-12-09T09:32:05.539Z,33.75
2018-12-09T09:33:05.951Z,33.75
2018-12-09T09:34:06.917Z,22.5
2018-12-09T09:35:07.052Z,22.5
2018-12-09T09:36:07.602Z,33.75
2018-12-09T09:37:08.295Z,45
2018-12-09T09:38:09.262Z,45
2018-12-09T09:39:09.678Z,56.25
2018-12-09T09:40:10.089Z,67.5
2018-12-09T09:41:10.782Z,67.5
2018-12-09T09:42:11.750Z,61.88
2018-12-09T09:43:11.887Z,61.88
2018-12-09T09:44:12.848Z,67.5
2018-12-09T09:45:18.036Z,73.13
2018-12-09T09:46:14.596Z,78.75
2018-12-09T09:47:16.394Z,106.88
2018-12-09T09:48:16.806Z,118.13
2018-12-09T09:49:17.785Z,135
2018-12-09T09:50:18.756Z,180
2018-12-09T09:51:19.448Z,185.63
2018-12-09T09:52:24.211Z,146.25
2018-12-09T09:53:22.243Z,146.25
2018-12-09T09:54:22.655Z,151.88
2018-12-09T09:55:24.632Z,123.75
2018-12-09T09:56:24.930Z,118.13
2018-12-09T09:57:26.915Z,112.5
2018-12-09T09:58:27.436Z,112.5
2018-12-09T09:59:30.206Z,84.38
2018-12-09T10:00:30.173Z,67.5
2018-12-09T10:01:30.308Z,61.88
2018-12-09T10:02:31.725Z,90
2018-12-09T10:03:33.593Z,112.5
2018-12-09T10:04:33.488Z,129.38
2018-12-09T10:05:33.623Z,135
2018-12-09T10:06:34.185Z,112.5
2018-12-09T10:07:35.905Z,101.25
2018-12-09T10:08:36.595Z,95.63
2018-12-09T10:09:37.284Z,67.5
2018-12-09T10:10:38.249Z,50.63
2018-12-09T10:11:38.938Z,56.25
2018-12-09T10:12:39.353Z,84.38
2018-12-09T10:13:40.341Z,112.5
2018-12-09T10:14:40.754Z,140.63
2018-12-09T10:15:41.446Z,151.88
2018-12-09T10:16:42.108Z,151.88
2018-12-09T10:17:44.079Z,151.88
2018-12-09T10:18:43.773Z,151.88
2018-12-09T10:19:44.186Z,151.88
2018-12-09T10:20:45.162Z,151.88
2018-12-09T10:21:45.857Z,140.63
2018-12-09T10:22:45.995Z,118.13
2018-12-09T10:23:46.687Z,101.25
2018-12-09T10:24:46.823Z,118.13
2018-12-09T10:25:53.557Z,129.38
2018-12-09T10:25:59.829Z,129.38
2018-12-09T10:26:44.410Z,129.38
2018-12-09T10:27:45.115Z,129.38
2018-12-09T10:28:45.531Z,129.38
2018-12-09T10:29:47.225Z,135
2018-12-09T10:30:47.918Z,146.25
2018-12-09T10:31:48.608Z,157.5
2018-12-09T10:32:49.298Z,163.13
2018-12-09T10:33:51.634Z,163.13
2018-12-09T10:34:52.885Z,168.75
2018-12-09T10:35:53.305Z,168.75
2018-12-09T10:36:53.721Z,168.75
2018-12-09T10:37:54.548Z,174.38
2018-12-09T10:38:54.960Z,174.38
2018-12-09T10:39:56.654Z,180
2018-12-09T10:40:57.350Z,196.88
2018-12-09T10:41:57.482Z,196.88
2018-12-09T10:42:58.914Z,202.5
2018-12-09T10:43:59.051Z,208.13
2018-12-09T10:45:00.745Z,213.75
2018-12-09T10:46:00.897Z,208.13
2018-12-09T10:47:02.587Z,196.88
2018-12-09T10:48:03.799Z,196.88
2018-12-09T10:49:03.491Z,185.63
2018-12-09T10:50:04.237Z,174.38
2018-12-09T10:51:04.651Z,163.13
2018-12-09T10:52:05.347Z,163.13
2018-12-09T10:53:06.043Z,146.25
2018-12-09T10:54:06.733Z,135
2018-12-09T10:55:09.059Z,129.38
2018-12-09T10:56:07.680Z,123.75
2018-12-09T10:57:08.375Z,118.13
2018-12-09T10:58:09.566Z,118.13
2018-12-09T10:59:10.256Z,123.75
2018-12-09T11:00:11.228Z,129.38
2018-12-09T11:01:11.369Z,135
2018-12-09T11:02:12.519Z,135
2018-12-09T11:03:13.208Z,140.63
2018-12-09T11:04:14.345Z,140.63
2018-12-09T11:05:15.759Z,135
2018-12-09T11:06:16.171Z,140.63
2018-12-09T11:07:16.585Z,151.88
2018-12-09T11:08:19.113Z,163.13
2018-12-09T11:09:19.343Z,163.13
2018-12-09T11:10:20.402Z,163.13
2018-12-09T11:11:21.130Z,185.63
2018-12-09T11:12:21.545Z,208.13
2018-12-09T11:13:22.916Z,241.88
2018-12-09T11:14:22.938Z,286.88
2018-12-09T11:15:23.727Z,416.25
2018-12-09T11:16:24.422Z,371.25
2018-12-09T11:17:25.400Z,421.88
2018-12-09T11:18:26.503Z,326.25
2018-12-09T11:19:26.920Z,292.5
2018-12-09T11:20:28.056Z,258.75
2018-12-09T11:21:32.881Z,247.5
2018-12-09T11:22:33.852Z,241.88
2018-12-09T11:23:33.544Z,241.88
2018-12-09T11:24:34.239Z,247.5
2018-12-09T11:25:47.549Z,236.25
2018-12-09T11:26:47.287Z,247.5
2018-12-09T11:27:48.259Z,253.13
2018-12-09T11:28:48.671Z,247.5
2018-12-09T11:29:50.469Z,247.5
2018-12-09T11:30:50.606Z,230.63
2018-12-09T11:31:52.399Z,230.63
2018-12-09T11:32:52.883Z,225
2018-12-09T11:33:53.856Z,219.38
2018-12-09T11:34:54.830Z,213.75
2018-12-09T11:35:55.250Z,196.88
2018-12-09T11:36:56.357Z,196.88
2018-12-09T11:37:57.049Z,208.13
2018-12-09T11:38:57.748Z,225
2018-12-09T11:39:58.167Z,230.63
2018-12-09T11:40:59.139Z,253.13
2018-12-09T11:41:59.830Z,281.25
2018-12-09T11:43:00.804Z,303.75
2018-12-09T11:44:02.338Z,343.13
2018-12-09T11:45:02.582Z,416.25
2018-12-09T11:46:04.765Z,590.63
2018-12-09T11:47:02.331Z,708.75
2018-12-09T11:48:04.640Z,1051.88
2018-12-09T11:49:04.157Z,978.75
2018-12-09T11:50:06.243Z,866.25
2018-12-09T11:51:05.974Z,888.75
2018-12-09T11:52:06.113Z,1175.63
2018-12-09T11:53:09.259Z,1698.75
2018-12-09T11:54:10.954Z,1738.13
2018-12-09T11:55:11.374Z,742.5
2018-12-09T11:56:18.311Z,658.13
2018-12-09T11:56:30.668Z,630
2018-12-09T11:56:43.532Z,601.88
2018-12-09T11:56:53.314Z,523.13
2018-12-09T11:57:49.463Z,562.5
2018-12-09T11:58:50.604Z,438.75
2018-12-09T11:59:51.296Z,365.63
2018-12-09T12:00:51.994Z,343.13
2018-12-09T12:01:53.569Z,337.5
2018-12-09T12:02:53.543Z,472.5
2018-12-09T12:03:54.514Z,450
2018-12-09T12:04:54.995Z,343.13
2018-12-09T12:05:55.137Z,343.13
2018-12-09T12:06:57.119Z,326.25
2018-12-09T12:07:57.068Z,213.75
2018-12-09T12:08:57.206Z,185.63
2018-12-09T12:09:58.960Z,163.13
2018-12-09T12:10:59.375Z,123.75
2018-12-09T12:12:00.345Z,106.88
2018-12-09T12:13:00.767Z,95.63
2018-12-09T12:14:01.181Z,95.63
2018-12-09T12:15:01.603Z,106.88
2018-12-09T12:16:03.127Z,112.5
2018-12-09T12:17:03.383Z,123.75
2018-12-09T12:18:03.486Z,112.5
2018-12-09T12:19:05.015Z,106.88
2018-12-09T12:20:04.435Z,95.63
2018-12-09T12:21:05.850Z,90
2018-12-09T12:22:06.303Z,73.13
2018-12-09T12:23:06.442Z,61.88
2018-12-09T12:24:08.137Z,61.88
2018-12-09T12:25:08.570Z,67.5
2018-12-09T12:26:10.667Z,78.75
2018-12-09T12:27:10.088Z,90
2018-12-09T12:28:11.284Z,95.63
2018-12-09T12:29:11.701Z,101.25
2018-12-09T12:30:12.113Z,112.5
2018-12-09T12:31:13.819Z,123.75
2018-12-09T12:32:14.233Z,129.38
2018-12-09T12:33:14.927Z,123.75
2018-12-09T12:34:15.343Z,118.13
2018-12-09T12:35:15.763Z,118.13
2018-12-09T12:36:15.936Z,112.5
2018-12-09T12:37:18.461Z,135
2018-12-09T12:38:18.288Z,151.88
2018-12-09T12:39:18.527Z,157.5
2018-12-09T12:40:19.234Z,157.5
2018-12-09T12:41:20.925Z,151.88
2018-12-09T12:42:21.897Z,135
2018-12-09T12:43:22.314Z,129.38
2018-12-09T12:44:23.009Z,135
2018-12-09T12:45:23.421Z,140.63
2018-12-09T12:46:24.621Z,151.88
2018-12-09T12:47:25.420Z,135
2018-12-09T12:48:25.914Z,118.13
2018-12-09T12:49:26.613Z,112.5
2018-12-09T12:50:26.750Z,101.25
2018-12-09T12:51:28.445Z,95.63
2018-12-09T12:52:29.423Z,95.63
2018-12-09T12:53:30.119Z,101.25
2018-12-09T12:54:31.092Z,106.88
2018-12-09T12:55:31.228Z,112.5
2018-12-09T12:56:35.597Z,118.13
2018-12-09T12:57:39.478Z,129.38
2018-12-09T12:57:50.598Z,129.38
2018-12-09T12:57:59.802Z,129.38
2018-12-09T12:59:15.156Z,135
2018-12-09T13:00:11.244Z,129.38
2018-12-09T13:01:11.218Z,129.38
2018-12-09T13:02:11.354Z,123.75
2018-12-09T13:03:12.051Z,118.13
2018-12-09T13:04:12.467Z,118.13
2018-12-09T13:05:12.613Z,106.88
2018-12-09T13:06:14.029Z,106.88
2018-12-09T13:07:14.445Z,106.88
2018-12-09T13:08:19.370Z,106.88
2018-12-09T13:08:32.599Z,106.88
2018-12-09T13:08:39.969Z,106.88
2018-12-09T13:09:40.119Z,112.5
2018-12-09T13:10:41.087Z,112.5
2018-12-09T13:11:41.500Z,118.13
2018-12-09T13:12:42.641Z,112.5
2018-12-09T13:13:44.613Z,118.13
2018-12-09T13:14:45.032Z,123.75
2018-12-09T13:15:45.447Z,129.38
2018-12-09T13:16:46.423Z,135
2018-12-09T13:17:46.840Z,135
2018-12-09T13:18:47.284Z,135
2018-12-09T13:19:48.942Z,140.63
2018-12-09T13:20:49.908Z,140.63
2018-12-09T13:21:50.635Z,140.63
2018-12-09T13:22:51.371Z,135
2018-12-09T13:23:52.618Z,123.75
2018-12-09T13:24:53.034Z,112.5
2018-12-09T13:25:53.168Z,101.25
2018-12-09T13:26:57.279Z,90
2018-12-09T13:28:01.986Z,84.38
2018-12-09T13:28:15.533Z,84.38
2018-12-09T13:28:39.805Z,78.75
2018-12-09T13:28:48.820Z,78.75
2018-12-09T13:29:46.338Z,73.13
2018-12-09T13:30:47.028Z,67.5
2018-12-09T13:31:47.159Z,56.25
2018-12-09T13:32:48.574Z,56.25
2018-12-09T13:33:49.300Z,56.25
2018-12-09T13:34:49.992Z,56.25
2018-12-09T13:35:50.679Z,61.88
2018-12-09T13:36:51.092Z,67.5
2018-12-09T13:37:52.060Z,67.5
2018-12-09T13:38:53.029Z,73.13
2018-12-09T13:39:53.430Z,73.13
2018-12-09T13:40:53.568Z,78.75
2018-12-09T13:41:54.262Z,90
2018-12-09T13:42:54.955Z,101.25
2018-12-09T13:43:56.535Z,106.88
2018-12-09T13:44:57.229Z,106.88
2018-12-09T13:45:58.474Z,95.63
2018-12-09T13:46:58.614Z,78.75
2018-12-09T13:48:00.026Z,73.13
2018-12-09T13:49:00.439Z,78.75
2018-12-09T13:50:01.270Z,84.38